createdAt,value
2017-06-12T00:00:51.055Z,2.70
2017-06-12T00:03:18.588Z,2.95
2017-06-12T00:05:46.147Z,2.40
2017-06-12T00:08:13.767Z,3.28
2017-06-12T00:10:41.591Z,2.97
2017-06-12T00:13:09.744Z,4.12
2017-06-12T00:15:37.330Z,2.00
2017-06-12T00:18:04.859Z,7.10
2017-06-12T00:20:32.367Z,2.72
2017-06-12T00:23:00.639Z,2.40
2017-06-12T00:25:28.168Z,2.53
2017-06-12T00:27:55.647Z,2.60
2017-06-12T00:30:23.154Z,2.72
2017-06-12T00:32:50.755Z,2.87
2017-06-12T00:35:19.011Z,2.55
2017-06-12T00:37:46.522Z,2.15
2017-06-12T00:40:14.099Z,2.40
2017-06-12T00:42:41.643Z,3.30
2017-06-12T00:45:09.130Z,1.70
2017-06-12T00:47:37.381Z,3.85
2017-06-12T00:50:04.888Z,2.12
2017-06-12T00:52:33.211Z,3.10
2017-06-12T00:55:00.698Z,1.90
2017-06-12T00:57:28.533Z,1.98
2017-06-12T00:59:56.202Z,2.65
2017-06-12T01:02:23.689Z,1.62
2017-06-12T01:04:51.515Z,2.00
2017-06-12T01:07:19.167Z,3.10
2017-06-12T01:09:46.787Z,1.90
2017-06-12T01:12:15.093Z,1.85
2017-06-12T01:14:42.699Z,4.97
2017-06-12T01:17:10.523Z,1.65
2017-06-12T01:19:38.392Z,2.60
2017-06-12T01:22:17.856Z,2.20
2017-06-12T01:24:45.416Z,1.90
2017-06-12T01:27:12.956Z,2.40
2017-06-12T01:29:40.479Z,1.55
2017-06-12T01:32:08.067Z,2.72
2017-06-12T01:34:35.720Z,6.75
2017-06-12T01:37:03.227Z,2.03
2017-06-12T01:39:31.501Z,2.80
2017-06-12T01:41:59.111Z,2.33
2017-06-12T01:44:26.598Z,1.98
2017-06-12T01:46:54.121Z,4.03
2017-06-12T01:49:22.523Z,1.95
2017-06-12T01:51:50.011Z,3.00
2017-06-12T01:54:18.532Z,3.28
2017-06-12T01:56:46.295Z,2.15
2017-06-12T01:59:13.807Z,1.87
2017-06-12T02:01:41.323Z,2.00
2017-06-12T02:04:08.916Z,1.60
2017-06-12T02:06:36.480Z,2.17
2017-06-12T02:09:04.852Z,2.08
2017-06-12T02:11:32.568Z,3.65
2017-06-12T02:14:00.208Z,2.10
2017-06-12T02:16:27.838Z,3.95
2017-06-12T02:18:56.091Z,2.45
2017-06-12T02:21:23.663Z,3.58
2017-06-12T02:23:52.024Z,1.95
2017-06-12T02:26:19.595Z,2.00
2017-06-12T02:28:47.083Z,2.60
2017-06-12T02:31:14.578Z,2.15
2017-06-12T02:33:42.443Z,3.35
2017-06-12T02:36:09.931Z,2.95
2017-06-12T02:38:37.611Z,2.03
2017-06-12T02:41:05.170Z,2.08
2017-06-12T02:43:32.716Z,2.30
2017-06-12T02:46:00.377Z,1.85
2017-06-12T02:48:28.000Z,2.00
2017-06-12T02:50:55.567Z,1.87
2017-06-12T02:53:23.055Z,3.70
2017-06-12T02:55:50.563Z,2.60
2017-06-12T02:58:18.116Z,2.55
2017-06-12T03:00:45.955Z,4.12
2017-06-12T03:03:13.660Z,2.25
2017-06-12T03:05:41.480Z,2.12
2017-06-12T03:08:09.026Z,3.05
2017-06-12T03:10:36.603Z,2.60
2017-06-12T03:13:04.253Z,1.90
2017-06-12T03:15:31.855Z,4.18
2017-06-12T03:17:59.414Z,2.83
2017-06-12T03:20:27.100Z,2.75
2017-06-12T03:22:54.680Z,2.10
2017-06-12T03:25:22.707Z,3.53
2017-06-12T03:27:50.273Z,2.58
2017-06-12T03:30:18.071Z,2.47
2017-06-12T03:32:45.604Z,5.90
2017-06-12T03:35:13.195Z,2.47
2017-06-12T03:37:41.051Z,1.50
2017-06-12T03:40:08.567Z,2.50
2017-06-12T03:42:36.142Z,2.00
2017-06-12T03:45:03.698Z,3.45
2017-06-12T03:47:31.218Z,3.20
2017-06-12T03:49:59.630Z,2.70
2017-06-12T03:52:27.119Z,3.03
2017-06-12T03:54:54.846Z,2.08
2017-06-12T03:57:22.379Z,6.72
2017-06-12T03:59:51.044Z,4.15
2017-06-12T04:02:18.786Z,3.30
2017-06-12T04:04:46.275Z,3.47
2017-06-12T04:07:13.787Z,4.85
2017-06-12T04:09:41.659Z,3.22
2017-06-12T04:12:09.156Z,3.92
2017-06-12T04:14:36.675Z,2.90
2017-06-12T04:17:04.219Z,2.35
2017-06-12T04:19:31.914Z,9.65
2017-06-12T04:21:59.495Z,3.58
2017-06-12T04:24:27.067Z,2.45
2017-06-12T04:26:54.693Z,2.37
2017-06-12T04:29:22.230Z,2.12
2017-06-12T04:31:49.980Z,4.50
2017-06-12T04:34:17.467Z,2.45
2017-06-12T04:36:44.959Z,3.15
2017-06-12T04:39:12.491Z,5.30
2017-06-12T04:41:39.982Z,2.95
2017-06-12T04:44:07.790Z,2.95
2017-06-12T04:46:36.156Z,4.62
2017-06-12T04:49:03.667Z,2.70
2017-06-12T04:51:31.336Z,2.15
2017-06-12T04:53:58.823Z,2.87
2017-06-12T04:56:26.519Z,6.05
2017-06-12T04:58:54.251Z,2.60
2017-06-12T05:01:21.786Z,2.92
2017-06-12T05:03:50.073Z,4.15
2017-06-12T05:06:17.619Z,3.35
2017-06-12T05:08:45.179Z,4.15
2017-06-12T05:11:12.897Z,3.20
2017-06-12T05:13:40.496Z,3.67
2017-06-12T05:16:08.155Z,3.35
2017-06-12T05:18:35.931Z,2.65
2017-06-12T05:21:03.607Z,2.30
2017-06-12T05:23:31.182Z,3.10
2017-06-12T05:25:58.681Z,2.97
2017-06-12T05:28:26.236Z,5.75
2017-06-12T05:30:54.047Z,3.90
2017-06-12T05:33:21.563Z,3.65
2017-06-12T05:35:49.121Z,2.72
2017-06-12T05:38:16.714Z,3.17
2017-06-12T05:40:44.965Z,2.12
2017-06-12T05:43:12.908Z,3.08
2017-06-12T05:45:40.608Z,3.58
2017-06-12T05:48:08.096Z,3.60
2017-06-12T05:50:35.913Z,3.17
2017-06-12T05:53:04.256Z,3.67
2017-06-12T05:55:31.808Z,2.80
2017-06-12T05:58:00.518Z,3.03
2017-06-12T06:00:28.047Z,2.40
2017-06-12T06:02:55.590Z,2.33
2017-06-12T06:05:23.141Z,2.90
2017-06-12T06:07:50.666Z,2.90
2017-06-12T06:10:18.336Z,2.57
2017-06-12T06:12:45.885Z,3.97
2017-06-12T06:15:13.735Z,4.60
2017-06-12T06:17:41.224Z,2.30
2017-06-12T06:20:08.754Z,4.50
2017-06-12T06:22:36.248Z,4.37
2017-06-12T06:25:03.823Z,3.03
2017-06-12T06:27:31.626Z,3.20
2017-06-12T06:29:59.151Z,2.70
2017-06-12T06:32:27.555Z,2.80
2017-06-12T06:34:55.091Z,2.47
2017-06-12T06:37:22.671Z,6.27
2017-06-12T06:39:50.202Z,3.60
2017-06-12T06:42:18.006Z,2.80
2017-06-12T06:44:45.499Z,3.17
2017-06-12T06:47:12.996Z,4.03
2017-06-12T06:49:40.543Z,3.10
2017-06-12T06:52:08.082Z,3.30
2017-06-12T06:54:35.680Z,3.13
2017-06-12T06:57:03.210Z,3.10
2017-06-12T06:59:30.739Z,4.13
2017-06-12T07:01:58.441Z,3.07
2017-06-12T07:04:25.939Z,5.70
2017-06-12T07:06:53.528Z,4.23
2017-06-12T07:09:21.090Z,3.03
2017-06-12T07:11:48.638Z,3.77
2017-06-12T07:14:16.133Z,2.60
2017-06-12T07:16:43.713Z,4.87
2017-06-12T07:19:11.203Z,3.93
2017-06-12T07:21:39.492Z,4.73
2017-06-12T07:24:07.103Z,7.65
2017-06-12T07:26:34.890Z,3.85
2017-06-12T07:29:02.404Z,4.18
2017-06-12T07:31:31.850Z,3.90
2017-06-12T07:34:01.206Z,11.77
2017-06-12T07:36:30.678Z,7.72
2017-06-12T07:38:59.965Z,4.83
2017-06-12T07:41:29.146Z,4.05
2017-06-12T07:43:58.287Z,4.10
2017-06-12T07:46:27.574Z,4.20
2017-06-12T07:48:56.722Z,3.73
2017-06-12T07:51:25.899Z,8.52
2017-06-12T07:53:55.119Z,8.02
2017-06-12T07:56:24.508Z,5.37
2017-06-12T07:58:53.691Z,4.67
2017-06-12T08:01:22.870Z,6.40
2017-06-12T08:03:52.070Z,5.95
2017-06-12T08:06:21.238Z,4.90
2017-06-12T08:08:50.438Z,6.35
2017-06-12T08:11:19.601Z,4.70
2017-06-12T08:13:48.779Z,4.35
2017-06-12T08:16:17.968Z,4.68
2017-06-12T08:18:47.228Z,5.50
2017-06-12T08:21:16.437Z,5.60
2017-06-12T08:23:45.712Z,6.97
2017-06-12T08:26:14.881Z,6.40
2017-06-12T08:28:44.167Z,6.10
2017-06-12T08:31:13.533Z,7.32
2017-06-12T08:33:42.686Z,7.05
2017-06-12T08:36:11.842Z,6.65
2017-06-12T08:38:41.075Z,7.50
2017-06-12T08:41:10.331Z,20.65
2017-06-12T08:43:39.486Z,8.45
2017-06-12T08:46:08.774Z,10.68
2017-06-12T08:48:37.944Z,7.45
2017-06-12T08:51:07.079Z,9.38
2017-06-12T08:53:36.514Z,8.40
2017-06-12T08:56:05.703Z,10.07
2017-06-12T08:58:34.980Z,7.82
2017-06-12T09:01:04.186Z,6.55
2017-06-12T09:03:33.350Z,6.70
2017-06-12T09:06:02.746Z,7.35
2017-06-12T09:08:31.911Z,7.13
2017-06-12T09:11:01.091Z,11.05
2017-06-12T09:13:30.579Z,6.18
2017-06-12T09:15:59.874Z,7.25
2017-06-12T09:18:29.348Z,8.45
2017-06-12T09:20:58.562Z,7.15
2017-06-12T09:23:28.210Z,8.25
2017-06-12T09:25:57.346Z,8.55
2017-06-12T09:28:26.519Z,7.75
2017-06-12T09:30:55.650Z,7.30
2017-06-12T09:33:25.066Z,11.32
2017-06-12T09:35:54.466Z,6.07
2017-06-12T09:38:23.885Z,6.78
2017-06-12T09:40:53.078Z,7.35
2017-06-12T09:43:22.225Z,5.72
2017-06-12T09:45:51.387Z,8.32
2017-06-12T09:48:20.534Z,7.35
2017-06-12T09:50:49.720Z,7.65
2017-06-12T09:53:18.838Z,8.18
2017-06-12T09:55:48.380Z,6.87
2017-06-12T09:58:17.765Z,8.10
2017-06-12T10:00:46.922Z,8.90
2017-06-12T10:03:16.071Z,7.93
2017-06-12T10:05:45.210Z,5.97
2017-06-12T10:08:14.474Z,6.18
2017-06-12T10:10:43.667Z,6.53
2017-06-12T10:13:12.857Z,7.80
2017-06-12T10:15:42.092Z,7.12
2017-06-12T10:18:11.308Z,6.82
2017-06-12T10:20:40.482Z,5.75
2017-06-12T10:23:09.614Z,7.72
2017-06-12T10:25:38.798Z,7.18
2017-06-12T10:28:07.938Z,5.87
2017-06-12T10:30:37.123Z,9.70
2017-06-12T10:33:06.285Z,6.65
2017-06-12T10:35:35.490Z,7.03
2017-06-12T10:38:04.801Z,6.78
2017-06-12T10:40:34.019Z,6.20
2017-06-12T10:43:03.477Z,7.22
2017-06-12T10:45:32.659Z,5.60
2017-06-12T10:48:01.822Z,6.93
2017-06-12T10:50:31.014Z,6.00
2017-06-12T10:53:00.218Z,5.85
2017-06-12T10:55:29.624Z,4.53
2017-06-12T10:57:58.851Z,6.20
2017-06-12T11:00:28.041Z,8.10
2017-06-12T11:02:57.338Z,4.70
2017-06-12T11:05:26.533Z,5.25
2017-06-12T11:07:55.941Z,8.43
2017-06-12T11:10:25.138Z,5.93
2017-06-12T11:12:54.378Z,3.70
2017-06-12T11:15:23.529Z,4.57
2017-06-12T11:17:52.724Z,3.55
2017-06-12T11:20:21.899Z,5.28
2017-06-12T11:22:51.419Z,9.82
2017-06-12T11:25:26.331Z,4.30
2017-06-12T11:27:59.314Z,3.75
2017-06-12T11:30:28.523Z,4.10
2017-06-12T11:32:57.659Z,3.28
2017-06-12T11:35:26.894Z,5.05
2017-06-12T11:37:56.196Z,4.45
2017-06-12T11:40:25.382Z,4.05
2017-06-12T11:42:54.969Z,6.45
2017-06-12T11:45:23.322Z,4.53
2017-06-12T11:47:50.831Z,3.37
2017-06-12T11:50:18.314Z,4.50
2017-06-12T11:52:46.003Z,2.20
2017-06-12T11:55:13.960Z,2.53
2017-06-12T11:57:41.506Z,4.95
2017-06-12T12:00:09.059Z,4.25
2017-06-12T12:02:36.556Z,4.23
2017-06-12T12:05:04.095Z,3.03
2017-06-12T12:07:31.592Z,3.10
2017-06-12T12:09:59.131Z,3.42
2017-06-12T12:12:26.926Z,2.37
2017-06-12T12:14:54.435Z,2.22
2017-06-12T12:17:22.087Z,2.17
2017-06-12T12:19:50.423Z,2.25
2017-06-12T12:22:17.982Z,4.15
2017-06-12T12:24:45.508Z,2.12
2017-06-12T12:27:13.041Z,5.78
2017-06-12T12:29:40.917Z,2.95
2017-06-12T12:32:08.423Z,2.25
2017-06-12T12:34:35.967Z,2.30
2017-06-12T12:37:03.491Z,2.05
2017-06-12T12:39:30.982Z,2.10
2017-06-12T12:41:58.935Z,2.60
2017-06-12T12:44:26.439Z,4.25
2017-06-12T12:46:54.211Z,2.20
2017-06-12T12:49:21.719Z,2.10
2017-06-12T12:51:49.687Z,3.05
2017-06-12T12:54:17.443Z,3.05
2017-06-12T12:56:44.935Z,1.83
2017-06-12T12:59:12.464Z,3.55
2017-06-12T13:01:40.143Z,5.57
2017-06-12T13:04:07.799Z,1.83
2017-06-12T13:06:35.363Z,1.90
2017-06-12T13:09:03.136Z,4.45
2017-06-12T13:11:31.010Z,5.20
2017-06-12T13:13:58.504Z,6.40
2017-06-12T13:16:26.151Z,4.50
2017-06-12T13:18:53.731Z,2.65
2017-06-12T13:21:21.225Z,2.58
2017-06-12T13:23:48.842Z,2.20
2017-06-12T13:26:16.341Z,2.78
2017-06-12T13:28:43.855Z,5.60
2017-06-12T13:31:11.994Z,2.10
2017-06-12T13:33:39.646Z,6.18
2017-06-12T13:36:07.304Z,2.95
2017-06-12T13:38:34.840Z,8.52
2017-06-12T13:41:02.713Z,3.30
2017-06-12T13:43:30.843Z,2.17
2017-06-12T13:45:58.380Z,5.82
2017-06-12T13:48:25.867Z,2.87
2017-06-12T13:50:53.375Z,2.75
2017-06-12T13:53:20.873Z,4.62
2017-06-12T13:55:48.427Z,5.60
2017-06-12T13:58:16.843Z,5.05
2017-06-12T14:00:44.379Z,1.20
2017-06-12T14:03:12.182Z,9.23
2017-06-12T14:05:39.980Z,5.18
2017-06-12T14:08:07.528Z,3.03
2017-06-12T14:10:35.257Z,6.43
2017-06-12T14:13:03.763Z,7.78
2017-06-12T14:15:31.275Z,6.12
2017-06-12T14:17:59.777Z,3.72
2017-06-12T14:20:28.169Z,4.12
2017-06-12T14:22:55.675Z,4.82
2017-06-12T14:25:23.228Z,3.45
2017-06-12T14:27:50.870Z,5.90
2017-06-12T14:30:18.621Z,3.03
2017-06-12T14:32:46.113Z,5.00
2017-06-12T14:35:13.675Z,2.25
2017-06-12T14:37:41.247Z,1.67
2017-06-12T14:40:08.825Z,3.97
2017-06-12T14:42:37.091Z,5.32
2017-06-12T14:45:04.621Z,5.07
2017-06-12T14:47:32.140Z,4.47
2017-06-12T14:49:59.699Z,3.08
2017-06-12T14:52:27.311Z,4.72
2017-06-12T14:54:55.973Z,6.22
2017-06-12T14:57:23.615Z,7.30
2017-06-12T14:59:51.146Z,2.72
2017-06-12T15:02:18.723Z,7.85
2017-06-12T15:04:46.422Z,3.53
2017-06-12T15:07:14.224Z,4.20
2017-06-12T15:09:42.130Z,3.50
2017-06-12T15:12:10.222Z,4.70
2017-06-12T15:14:37.775Z,3.37
2017-06-12T15:17:05.623Z,3.37
2017-06-12T15:19:33.854Z,3.50
2017-06-12T15:22:01.373Z,3.15
2017-06-12T15:24:28.953Z,3.60
2017-06-12T15:26:56.441Z,3.00
2017-06-12T15:29:24.083Z,4.40
2017-06-12T15:31:51.878Z,5.43
2017-06-12T15:34:19.831Z,5.00
2017-06-12T15:36:47.372Z,5.35
2017-06-12T15:39:15.359Z,3.75
2017-06-12T15:41:44.060Z,5.90
2017-06-12T15:44:11.755Z,8.63
2017-06-12T15:46:39.522Z,3.67
2017-06-12T15:49:08.723Z,6.35
2017-06-12T15:51:36.296Z,3.53
2017-06-12T15:54:04.036Z,3.30
2017-06-12T15:56:32.650Z,3.28
2017-06-12T15:59:00.447Z,3.70
2017-06-12T16:01:28.291Z,5.25
2017-06-12T16:03:55.868Z,3.22
2017-06-12T16:06:23.418Z,3.50
2017-06-12T16:08:51.223Z,3.70
2017-06-12T16:11:18.771Z,3.35
2017-06-12T16:13:46.405Z,5.50
2017-06-12T16:16:15.172Z,4.00
2017-06-12T16:18:42.877Z,3.20
2017-06-12T16:21:10.391Z,5.65
2017-06-12T16:23:38.170Z,4.43
2017-06-12T16:26:05.819Z,3.65
2017-06-12T16:28:33.343Z,6.15
2017-06-12T16:31:00.896Z,3.65
2017-06-12T16:33:28.430Z,3.37
2017-06-12T16:35:56.703Z,7.50
2017-06-12T16:38:25.011Z,4.28
2017-06-12T16:40:52.525Z,3.60
2017-06-12T16:43:20.171Z,7.28
2017-06-12T16:45:47.796Z,4.50
2017-06-12T16:48:15.288Z,3.60
2017-06-12T16:50:43.323Z,5.57
2017-06-12T16:53:10.807Z,4.35
2017-06-12T16:55:38.317Z,3.90
2017-06-12T16:58:06.045Z,5.70
2017-06-12T17:00:33.594Z,3.22
2017-06-12T17:03:01.114Z,2.72
2017-06-12T17:05:31.532Z,3.45
2017-06-12T17:07:59.439Z,5.25
2017-06-12T17:10:27.123Z,4.53
2017-06-12T17:12:55.436Z,4.90
2017-06-12T17:15:22.936Z,3.67
2017-06-12T17:17:50.448Z,5.80
2017-06-12T17:20:19.359Z,7.05
2017-06-12T17:22:47.930Z,4.90
2017-06-12T17:25:15.416Z,4.93
2017-06-12T17:27:43.077Z,4.22
2017-06-12T17:30:11.706Z,5.50
2017-06-12T17:32:40.100Z,6.53
2017-06-12T17:35:07.963Z,6.25
2017-06-12T17:37:35.454Z,7.30
2017-06-12T17:40:02.998Z,5.55
2017-06-12T17:42:30.492Z,7.65
2017-06-12T17:44:58.751Z,4.80
2017-06-12T17:47:27.056Z,6.47
2017-06-12T17:49:54.631Z,4.78
2017-06-12T17:52:22.271Z,3.25
2017-06-12T17:54:49.759Z,4.10
2017-06-12T17:57:17.449Z,6.82
2017-06-12T17:59:44.962Z,5.60
2017-06-12T18:02:12.558Z,5.62
2017-06-12T18:04:40.116Z,8.75
2017-06-12T18:07:08.051Z,4.28
2017-06-12T18:09:35.595Z,9.50
2017-06-12T18:12:03.295Z,5.43
2017-06-12T18:14:31.094Z,5.20
2017-06-12T18:16:58.695Z,5.12
2017-06-12T18:19:26.192Z,6.80
2017-06-12T18:21:53.719Z,7.47
2017-06-12T18:24:21.268Z,7.15
2017-06-12T18:26:48.795Z,6.25
2017-06-12T18:29:16.340Z,8.32
2017-06-12T18:31:43.837Z,5.55
2017-06-12T18:34:11.547Z,6.40
2017-06-12T18:36:40.640Z,5.35
2017-06-12T18:39:08.968Z,8.90
2017-06-12T18:41:36.459Z,5.80
2017-06-12T18:44:10.601Z,5.45
2017-06-12T18:46:38.416Z,10.85
2017-06-12T18:49:06.860Z,8.23
2017-06-12T18:51:36.577Z,5.78
2017-06-12T18:54:05.684Z,5.68
2017-06-12T18:56:36.160Z,7.40
2017-06-12T18:59:05.280Z,8.43
2017-06-12T19:01:36.771Z,9.90
2017-06-12T19:04:05.514Z,6.87
2017-06-12T19:06:33.796Z,7.65
2017-06-12T19:09:04.562Z,7.55
2017-06-12T19:11:34.567Z,5.57
2017-06-12T19:14:05.394Z,8.20
2017-06-12T19:16:36.858Z,6.95
2017-06-12T19:19:06.321Z,8.38
2017-06-12T19:21:35.842Z,7.30
2017-06-12T19:24:06.839Z,9.43
2017-06-12T19:26:35.685Z,9.80
2017-06-12T19:29:04.503Z,12.60
2017-06-12T19:31:35.219Z,10.32
2017-06-12T19:34:04.887Z,13.25
2017-06-12T19:36:32.739Z,6.35
2017-06-12T19:39:02.061Z,11.52
2017-06-12T19:41:30.625Z,12.02
2017-06-12T19:44:00.475Z,10.43
2017-06-12T19:46:30.961Z,12.02
2017-06-12T19:49:02.404Z,7.90
2017-06-12T19:51:32.287Z,10.35
2017-06-12T19:54:02.377Z,13.43
2017-06-12T19:56:30.864Z,13.30
2017-06-12T19:58:59.946Z,9.23
2017-06-12T20:01:30.159Z,7.95
2017-06-12T20:04:00.728Z,12.45
2017-06-12T20:06:30.495Z,11.12
2017-06-12T20:08:59.762Z,12.57
2017-06-12T20:11:29.416Z,12.15
2017-06-12T20:13:58.435Z,12.80
2017-06-12T20:16:27.771Z,7.03
2017-06-12T20:18:58.696Z,13.32
2017-06-12T20:21:27.559Z,9.93
2017-06-12T20:23:57.867Z,7.10
2017-06-12T20:26:28.892Z,6.47
2017-06-12T20:28:58.569Z,13.68
2017-06-12T20:31:28.595Z,11.27
2017-06-12T20:33:57.801Z,7.97
2017-06-12T20:36:27.710Z,6.97
2017-06-12T20:38:56.737Z,9.45
2017-06-12T20:41:24.303Z,8.00
2017-06-12T20:43:53.853Z,9.88
2017-06-12T20:46:22.197Z,7.75
2017-06-12T20:48:50.349Z,7.60
2017-06-12T20:51:17.924Z,8.57
2017-06-12T20:53:45.679Z,8.57
2017-06-12T20:56:13.571Z,10.07
2017-06-12T20:58:41.326Z,13.48
2017-06-12T21:01:09.461Z,7.10
2017-06-12T21:03:37.122Z,11.60
2017-06-12T21:06:04.848Z,12.50
2017-06-12T21:08:32.398Z,8.05
2017-06-12T21:11:00.190Z,6.20
2017-06-12T21:13:27.719Z,9.27
2017-06-12T21:15:55.459Z,11.77
2017-06-12T21:18:23.049Z,8.88
2017-06-12T21:20:50.879Z,6.20
2017-06-12T21:23:18.403Z,8.35
2017-06-12T21:25:45.928Z,6.55
2017-06-12T21:28:13.798Z,8.45
2017-06-12T21:30:41.509Z,8.57
2017-06-12T21:33:09.030Z,8.02
2017-06-12T21:35:37.067Z,10.85
2017-06-12T21:38:04.579Z,11.55
2017-06-12T21:40:32.419Z,11.55
2017-06-12T21:43:00.675Z,8.68
2017-06-12T21:45:28.767Z,6.70
2017-06-12T21:47:57.022Z,10.65
2017-06-12T21:50:25.282Z,10.95
2017-06-12T21:52:52.787Z,10.32
2017-06-12T21:55:20.459Z,10.07
2017-06-12T21:57:47.988Z,7.72
2017-06-12T22:00:15.662Z,8.35
2017-06-12T22:02:43.155Z,11.27
2017-06-12T22:05:10.723Z,14.52
2017-06-12T22:07:38.211Z,8.98
2017-06-12T22:10:05.787Z,6.95
2017-06-12T22:12:33.607Z,8.38
2017-06-12T22:15:01.437Z,7.75
2017-06-12T22:17:28.951Z,12.73
2017-06-12T22:19:56.590Z,9.93
2017-06-12T22:22:24.426Z,9.10
2017-06-12T22:24:52.384Z,14.23
2017-06-12T22:27:21.454Z,10.35
2017-06-12T22:29:49.338Z,14.48
2017-06-12T22:32:16.826Z,7.30
2017-06-12T22:34:44.507Z,10.30
2017-06-12T22:37:12.218Z,8.77
2017-06-12T22:39:40.623Z,12.77
2017-06-12T22:42:08.973Z,8.05
2017-06-12T22:44:37.138Z,9.35
2017-06-12T22:47:04.652Z,12.65
2017-06-12T22:49:33.840Z,12.10
2017-06-12T22:52:01.571Z,8.32
2017-06-12T22:54:29.078Z,8.60
2017-06-12T22:56:56.851Z,10.60
2017-06-12T22:59:24.496Z,9.45
2017-06-12T23:01:52.099Z,9.13
2017-06-12T23:04:19.597Z,9.10
2017-06-12T23:06:47.159Z,8.25
2017-06-12T23:09:14.919Z,10.10
2017-06-12T23:11:43.255Z,12.43
2017-06-12T23:14:10.773Z,6.18
2017-06-12T23:16:38.400Z,7.20
2017-06-12T23:19:06.119Z,8.80
2017-06-12T23:21:33.667Z,8.80
2017-06-12T23:24:06.797Z,7.70
2017-06-12T23:26:34.318Z,10.07
2017-06-12T23:29:01.891Z,10.35
2017-06-12T23:31:29.678Z,7.90
2017-06-12T23:33:57.225Z,11.88
2017-06-12T23:36:24.890Z,10.38
2017-06-12T23:38:53.423Z,9.63
2017-06-12T23:41:21.119Z,9.48
2017-06-12T23:43:49.476Z,11.38
2017-06-12T23:46:17.095Z,9.50
2017-06-12T23:48:45.439Z,9.90
2017-06-12T23:51:13.063Z,7.37
2017-06-12T23:53:40.593Z,8.98
2017-06-12T23:56:09.411Z,12.27
2017-06-12T23:58:37.021Z,9.38
